Time;durP1;ratioP1;P1;durP2;ratioP2;P2;SDS_P1;SDS_P2;PMS_P1;PMS_P2;Temp;Humidity;BMP_temperature;BMP_pressure;BME280_temperature;BME280_humidity;BME280_pressure;Samples;Min_cycle;Max_cycle;Signal;HPM_P1;HPM_P2
2023/02/02 00:04:47;;;;;;;6.72;5.57;;;;;;;;;;10310017;28;20067;-66
2023/02/02 00:09:45;;;;;;;8.95;6.13;;;;;;;;;;10329706;28;20060;-66
2023/02/02 00:14:43;;;;;;;8.63;5.45;;;;;;;;;;10334131;28;20056;-66
2023/02/02 00:19:41;;;;;;;6.25;5.65;;;;;;;;;;10333827;28;20091;-66
2023/02/02 00:24:41;;;;;;;8.50;6.05;;;;;;;;;;10332098;28;20068;-66
2023/02/02 00:29:39;;;;;;;5.97;4.57;;;;;;;;;;10333200;28;20694;-66
2023/02/02 00:34:37;;;;;;;6.70;5.10;;;;;;;;;;10332772;28;20087;-66
2023/02/02 00:39:36;;;;;;;8.00;4.82;;;;;;;;;;10332453;28;20072;-66
2023/02/02 00:49:51;;;;;;;7.35;5.28;;;;;;;;;;10332514;28;20072;-65
2023/02/02 00:54:49;;;;;;;6.20;5.15;;;;;;;;;;10328845;28;20048;-65
2023/02/02 00:59:49;;;;;;;8.57;6.20;;;;;;;;;;10332286;28;20074;-66
2023/02/02 01:04:48;;;;;;;7.85;6.18;;;;;;;;;;10326425;28;20060;-66
2023/02/02 01:09:47;;;;;;;6.38;5.78;;;;;;;;;;10330881;28;20071;-66
2023/02/02 01:14:45;;;;;;;5.65;4.85;;;;;;;;;;10327971;28;20052;-66
2023/02/02 01:19:44;;;;;;;7.32;6.20;;;;;;;;;;10331232;28;20178;-66
2023/02/02 01:24:43;;;;;;;6.28;5.28;;;;;;;;;;10331867;28;20064;-66
2023/02/02 01:29:41;;;;;;;6.10;5.18;;;;;;;;;;10331908;28;20544;-66
2023/02/02 01:34:40;;;;;;;7.38;4.97;;;;;;;;;;10330487;28;20548;-66
2023/02/02 01:39:40;;;;;;;6.10;5.53;;;;;;;;;;10329896;28;20086;-66
2023/02/02 01:44:59;;;;;;;6.85;5.35;;;;;;;;;;10311807;28;20052;-65
2023/02/02 01:49:57;;;;;;;9.80;5.60;;;;;;;;;;10332419;28;20063;-66
2023/02/02 01:54:59;;;;;;;6.25;5.50;;;;;;;;;;10310682;28;20045;-66
2023/02/02 01:59:58;;;;;;;10.32;5.55;;;;;;;;;;10330509;28;20075;-66
2023/02/02 02:04:57;;;;;;;6.72;6.03;;;;;;;;;;10311736;28;20044;-66
2023/02/02 02:09:55;;;;;;;11.23;6.80;;;;;;;;;;10329017;28;20068;-66
2023/02/02 02:31:32;;;;;;;9.65;7.57;;;;;;;;;;10325437;28;20087;-66
2023/02/02 02:36:39;;;;;;;9.32;6.68;;;;;;;;;;10327844;28;20490;-66
2023/02/02 02:41:37;;;;;;;;;;;;;;;;;;10328066;28;20079;-65
2023/02/02 02:46:35;;;;;;;15.73;7.82;;;;;;;;;;10322714;28;19919;-65
2023/02/02 02:51:43;;;;;;;12.43;7.72;;;;;;;;;;10335160;28;20087;-65
2023/02/02 02:56:51;;;;;;;8.10;5.82;;;;;;;;;;10318642;28;20040;-65
2023/02/02 03:01:51;;;;;;;7.60;6.85;;;;;;;;;;10337261;28;20072;-66
2023/02/02 03:06:52;;;;;;;9.98;7.47;;;;;;;;;;10333659;28;20065;-66
2023/02/02 03:11:51;;;;;;;6.45;5.70;;;;;;;;;;10334059;28;20071;-66
2023/02/02 03:16:51;;;;;;;7.28;5.85;;;;;;;;;;10336454;28;20048;-66
2023/02/02 03:21:49;;;;;;;7.40;6.40;;;;;;;;;;10334909;28;20501;-66
2023/02/02 03:26:49;;;;;;;7.20;6.05;;;;;;;;;;10334696;28;20072;-66
2023/02/02 03:31:47;;;;;;;8.07;6.65;;;;;;;;;;10334347;28;20091;-66
2023/02/02 03:36:45;;;;;;;9.40;6.88;;;;;;;;;;10335107;28;20478;-66
2023/02/02 03:41:43;;;;;;;9.93;6.45;;;;;;;;;;10334884;28;20076;-66
2023/02/02 03:46:43;;;;;;;10.55;7.95;;;;;;;;;;10335045;28;20477;-66
2023/02/02 03:51:43;;;;;;;7.25;6.25;;;;;;;;;;10335232;28;20095;-66
2023/02/02 03:56:41;;;;;;;8.05;6.80;;;;;;;;;;10333315;28;20075;-67
2023/02/02 04:01:39;;;;;;;9.88;6.97;;;;;;;;;;10334074;28;20075;-66
2023/02/02 04:06:38;;;;;;;14.80;11.60;;;;;;;;;;10333744;28;20064;-66
2023/02/02 04:11:37;;;;;;;6.55;5.95;;;;;;;;;;10332956;28;20071;-66
2023/02/02 04:16:37;;;;;;;8.73;6.63;;;;;;;;;;10333998;28;20093;-66
2023/02/02 04:21:35;;;;;;;9.70;8.70;;;;;;;;;;10332725;28;20521;-66
2023/02/02 04:26:34;;;;;;;11.27;8.27;;;;;;;;;;10330456;28;20074;-67
2023/02/02 04:31:32;;;;;;;10.43;8.73;;;;;;;;;;10331404;28;20095;-66
2023/02/02 04:36:31;;;;;;;9.98;8.38;;;;;;;;;;10332381;28;20091;-66
2023/02/02 04:41:29;;;;;;;9.48;7.18;;;;;;;;;;10332001;28;20071;-66
2023/02/02 04:46:28;;;;;;;11.43;9.63;;;;;;;;;;10332357;28;20074;-66
2023/02/02 04:51:26;;;;;;;8.73;7.72;;;;;;;;;;10330745;28;20079;-66
2023/02/02 04:56:25;;;;;;;11.32;8.35;;;;;;;;;;10329926;28;20068;-65
2023/02/02 05:01:23;;;;;;;10.90;6.68;;;;;;;;;;10329020;28;20079;-66
2023/02/02 05:06:22;;;;;;;10.73;8.52;;;;;;;;;;10331673;28;20072;-66
2023/02/02 05:11:21;;;;;;;8.98;8.07;;;;;;;;;;10329981;28;20071;-66
2023/02/02 05:16:20;;;;;;;7.35;6.47;;;;;;;;;;10330551;28;20075;-66
2023/02/02 05:21:19;;;;;;;7.97;6.28;;;;;;;;;;10329319;28;20482;-66
2023/02/02 05:26:20;;;;;;;9.00;5.97;;;;;;;;;;10329278;28;20071;-65
2023/02/02 05:31:18;;;;;;;12.50;9.45;;;;;;;;;;10332786;28;20084;-66
2023/02/02 05:36:16;;;;;;;9.32;7.57;;;;;;;;;;10336132;28;20071;-67
2023/02/02 05:41:14;;;;;;;9.85;8.38;;;;;;;;;;10325192;28;20508;-66
2023/02/02 05:46:14;;;;;;;9.65;7.70;;;;;;;;;;10322963;28;20060;-66
2023/02/02 05:51:16;;;;;;;9.88;7.80;;;;;;;;;;10323381;28;20116;-67
2023/02/02 05:56:15;;;;;;;8.13;6.00;;;;;;;;;;10336440;28;20083;-66
2023/02/02 06:01:15;;;;;;;7.90;6.28;;;;;;;;;;10334443;28;20474;-65
2023/02/02 06:06:13;;;;;;;7.03;6.32;;;;;;;;;;10325681;28;20556;-65
2023/02/02 06:11:12;;;;;;;8.02;6.82;;;;;;;;;;10324203;28;20076;-67
2023/02/02 06:16:11;;;;;;;7.13;6.18;;;;;;;;;;10322609;28;20076;-66
2023/02/02 06:21:11;;;;;;;9.55;7.22;;;;;;;;;;10324512;28;20067;-67
2023/02/02 06:26:09;;;;;;;9.27;7.88;;;;;;;;;;10316875;28;20071;-65
2023/02/02 06:31:08;;;;;;;6.38;5.78;;;;;;;;;;10331070;28;20458;-66
2023/02/02 06:36:06;;;;;;;10.80;8.80;;;;;;;;;;10331645;28;20076;-65
2023/02/02 06:41:06;;;;;;;19.33;13.10;;;;;;;;;;10332806;28;20064;-66
2023/02/02 06:46:05;;;;;;;9.45;7.80;;;;;;;;;;10328854;28;20067;-65
2023/02/02 06:51:04;;;;;;;10.25;7.05;;;;;;;;;;10338084;28;20066;-65
2023/02/02 06:56:03;;;;;;;8.60;7.68;;;;;;;;;;10341784;28;20076;-67
2023/02/02 07:01:04;;;;;;;13.18;9.95;;;;;;;;;;10337722;28;20068;-67
2023/02/02 07:06:10;;;;;;;16.10;13.88;;;;;;;;;;10333798;28;20088;-66
2023/02/02 07:11:08;;;;;;;13.20;8.57;;;;;;;;;;10345717;28;20538;-67
2023/02/02 07:16:14;;;;;;;13.73;11.30;;;;;;;;;;10346057;28;20083;-67
2023/02/02 07:21:15;;;;;;;11.98;9.98;;;;;;;;;;10330375;28;20083;-66
2023/02/02 07:26:14;;;;;;;8.23;7.43;;;;;;;;;;10332417;28;20072;-66
2023/02/02 07:31:15;;;;;;;15.95;10.88;;;;;;;;;;10330916;28;20540;-66
2023/02/02 07:36:15;;;;;;;17.67;11.98;;;;;;;;;;10327788;28;20448;-66
2023/02/02 07:41:14;;;;;;;19.13;12.65;;;;;;;;;;10334344;28;20087;-66
2023/02/02 07:46:13;;;;;;;13.77;10.73;;;;;;;;;;10346420;28;20552;-66
2023/02/02 07:51:13;;;;;;;16.40;11.00;;;;;;;;;;10337962;28;20467;-66
2023/02/02 07:56:13;;;;;;;14.57;9.68;;;;;;;;;;10334310;28;20079;-65
2023/02/02 08:01:12;;;;;;;15.27;10.80;;;;;;;;;;10334856;28;20544;-66
2023/02/02 08:06:14;;;;;;;12.63;8.32;;;;;;;;;;10336085;28;20060;-66
2023/02/02 08:11:13;;;;;;;14.52;10.07;;;;;;;;;;10330039;28;20078;-65
2023/02/02 08:16:12;;;;;;;11.70;7.60;;;;;;;;;;10334501;28;20516;-66
2023/02/02 08:21:10;;;;;;;9.23;8.23;;;;;;;;;;10334910;28;20082;-66
2023/02/02 08:26:10;;;;;;;11.82;8.63;;;;;;;;;;10338728;28;20067;-66
2023/02/02 08:31:10;;;;;;;13.90;8.80;;;;;;;;;;10337053;28;20083;-66
2023/02/02 08:36:11;;;;;;;12.65;10.05;;;;;;;;;;10333986;28;20074;-66
2023/02/02 08:41:12;;;;;;;15.25;9.10;;;;;;;;;;10335232;28;20079;-67
2023/02/02 08:46:11;;;;;;;19.35;11.35;;;;;;;;;;10336289;28;20076;-67
2023/02/02 08:51:13;;;;;;;9.98;6.60;;;;;;;;;;10334866;28;20079;-67
2023/02/02 08:56:14;;;;;;;6.97;5.93;;;;;;;;;;10332769;28;20044;-67
2023/02/02 09:01:13;;;;;;;6.22;5.22;;;;;;;;;;10332046;28;20082;-67
2023/02/02 09:06:13;;;;;;;7.95;5.80;;;;;;;;;;10330377;28;20497;-66
2023/02/02 09:11:13;;;;;;;10.13;6.78;;;;;;;;;;10335498;28;20523;-67
2023/02/02 09:16:12;;;;;;;7.90;6.60;;;;;;;;;;10331120;28;20075;-67
2023/02/02 09:21:11;;;;;;;7.70;6.15;;;;;;;;;;10332976;28;20075;-66
2023/02/02 09:26:10;;;;;;;8.88;7.97;;;;;;;;;;10333235;28;20071;-67
2023/02/02 09:31:09;;;;;;;6.22;5.43;;;;;;;;;;10330523;28;20076;-67
2023/02/02 09:36:09;;;;;;;10.07;7.45;;;;;;;;;;10332626;28;20072;-66
2023/02/02 09:41:27;;;;;;;8.85;7.25;;;;;;;;;;10330983;28;20421;-66
2023/02/02 09:46:28;;;;;;;10.00;6.70;;;;;;;;;;10331117;28;20111;-67
2023/02/02 09:51:28;;;;;;;13.77;10.07;;;;;;;;;;10334860;28;20086;-67
2023/02/02 09:56:29;;;;;;;5.82;4.88;;;;;;;;;;10313904;28;20056;-67
2023/02/02 10:01:31;;;;;;;12.60;8.07;;;;;;;;;;10328036;28;20068;-67
2023/02/02 10:06:33;;;;;;;10.25;6.53;;;;;;;;;;10330442;28;20071;-67
2023/02/02 10:11:34;;;;;;;6.07;4.53;;;;;;;;;;10331418;28;20105;-67
2023/02/02 10:16:35;;;;;;;5.53;4.35;;;;;;;;;;10331435;28;20064;-67
2023/02/02 10:21:35;;;;;;;6.32;4.32;;;;;;;;;;10325990;28;20501;-66
2023/02/02 10:26:37;;;;;;;18.52;13.82;;;;;;;;;;10329710;28;20453;-67
2023/02/02 10:31:41;;;;;;;6.07;5.30;;;;;;;;;;10328480;28;20090;-67
2023/02/02 10:36:47;;;;;;;5.65;5.03;;;;;;;;;;10315352;28;20071;-66
2023/02/02 10:41:48;;;;;;;11.05;6.97;;;;;;;;;;10327681;28;20064;-66
2023/02/02 10:46:50;;;;;;;9.85;8.15;;;;;;;;;;10332516;28;20087;-66
2023/02/02 10:51:51;;;;;;;14.13;9.63;;;;;;;;;;10323768;28;20087;-66
2023/02/02 10:56:52;;;;;;;7.95;7.10;;;;;;;;;;10325216;28;20061;-67
2023/02/02 11:01:52;;;;;;;6.70;4.97;;;;;;;;;;10324969;28;20067;-67
2023/02/02 11:06:50;;;;;;;6.57;5.50;;;;;;;;;;10325731;28;20524;-66
2023/02/02 11:11:50;;;;;;;17.98;12.52;;;;;;;;;;10331192;28;20501;-66
2023/02/02 11:16:59;;;;;;;17.15;10.15;;;;;;;;;;10337628;28;20072;-67
2023/02/02 11:22:00;;;;;;;10.70;6.25;;;;;;;;;;10341139;28;20079;-66
2023/02/02 11:27:00;;;;;;;8.85;7.07;;;;;;;;;;10340585;28;20493;-67
2023/02/02 11:31:59;;;;;;;8.73;4.97;;;;;;;;;;10336692;28;20118;-67
2023/02/02 11:36:59;;;;;;;13.73;8.32;;;;;;;;;;10339972;28;20074;-67
2023/02/02 11:42:01;;;;;;;13.05;7.93;;;;;;;;;;10337474;28;20078;-67
2023/02/02 11:47:00;;;;;;;9.70;4.80;;;;;;;;;;10339687;28;20076;-67
2023/02/02 11:52:03;;;;;;;7.80;6.75;;;;;;;;;;10333404;28;20067;-67
2023/02/02 11:57:02;;;;;;;9.18;7.03;;;;;;;;;;10336874;28;20122;-67
2023/02/02 12:02:19;;;;;;;3.78;3.47;;;;;;;;;;10334400;28;20060;-67
2023/02/02 12:07:21;;;;;;;6.03;4.30;;;;;;;;;;10339371;28;20500;-67
2023/02/02 12:12:26;;;;;;;7.38;4.20;;;;;;;;;;10337265;28;20048;-67
2023/02/02 12:17:30;;;;;;;4.40;3.73;;;;;;;;;;10328893;28;20083;-67
2023/02/02 12:22:38;;;;;;;4.60;3.97;;;;;;;;;;10334879;28;20079;-67
2023/02/02 12:27:43;;;;;;;4.80;4.28;;;;;;;;;;10337154;28;20068;-67
2023/02/02 12:32:49;;;;;;;15.20;9.48;;;;;;;;;;10337683;28;20084;-66
2023/02/02 12:37:56;;;;;;;9.88;6.38;;;;;;;;;;10335458;28;20068;-67
2023/02/02 12:43:02;;;;;;;8.05;5.93;;;;;;;;;;10336912;28;20076;-67
2023/02/02 12:48:07;;;;;;;8.95;6.32;;;;;;;;;;10337324;28;20083;-67
2023/02/02 12:53:17;;;;;;;9.45;6.35;;;;;;;;;;10328495;28;20498;-67
2023/02/02 12:58:20;;;;;;;13.23;8.32;;;;;;;;;;10334377;28;20083;-67
2023/02/02 13:03:27;;;;;;;46.15;21.58;;;;;;;;;;10332425;28;20072;-66
2023/02/02 13:08:29;;;;;;;14.82;9.80;;;;;;;;;;10330737;28;20087;-66
2023/02/02 13:13:30;;;;;;;5.50;4.40;;;;;;;;;;10334544;28;20071;-66
2023/02/02 13:18:30;;;;;;;36.08;17.67;;;;;;;;;;10331530;28;20082;-66
2023/02/02 13:23:32;;;;;;;18.33;11.40;;;;;;;;;;10335941;28;20071;-66
2023/02/02 13:28:37;;;;;;;11.20;9.15;;;;;;;;;;10332733;28;20071;-67
2023/02/02 13:33:36;;;;;;;40.75;23.45;;;;;;;;;;10335860;28;20083;-66
2023/02/02 13:38:40;;;;;;;49.33;21.83;;;;;;;;;;10326410;28;20083;-66
2023/02/02 13:43:43;;;;;;;29.00;19.65;;;;;;;;;;10337529;28;20055;-67
2023/02/02 13:48:45;;;;;;;5.03;4.55;;;;;;;;;;10334196;28;20079;-67
2023/02/02 13:53:55;;;;;;;5.63;5.05;;;;;;;;;;10334995;28;20082;-67
2023/02/02 13:59:02;;;;;;;6.75;6.07;;;;;;;;;;10332709;28;20067;-67
2023/02/02 14:04:00;;;;;;;29.23;15.63;;;;;;;;;;10331320;28;20076;-68
2023/02/02 14:09:01;;;;;;;8.70;6.68;;;;;;;;;;10332450;28;20079;-67
2023/02/02 14:19:36;;;;;;;8.40;6.45;;;;;;;;;;10331660;28;20067;-67
2023/02/02 14:24:36;;;;;;;;;;;;;;;;;;10313563;28;20083;-67
2023/02/02 14:29:38;;;;;;;9.85;7.35;;;;;;;;;;10331643;28;19963;-67
2023/02/02 14:34:38;;;;;;;49.22;24.50;;;;;;;;;;10334454;28;20097;-67
2023/02/02 14:39:39;;;;;;;8.10;6.93;;;;;;;;;;10332093;28;20497;-67
2023/02/02 14:44:58;;;;;;;10.93;8.23;;;;;;;;;;10338593;28;20100;-67
2023/02/02 14:49:57;;;;;;;11.13;9.52;;;;;;;;;;10338744;28;20493;-67
2023/02/02 14:55:02;;;;;;;9.20;7.43;;;;;;;;;;10340584;28;20075;-67
2023/02/02 15:00:28;;;;;;;10.52;8.77;;;;;;;;;;10312523;28;20533;-66
2023/02/02 15:05:39;;;;;;;7.63;6.93;;;;;;;;;;10339223;28;20090;-66
2023/02/02 15:10:57;;;;;;;122.45;65.47;;;;;;;;;;10342934;28;20504;-65
2023/02/02 15:16:06;;;;;;;82.30;44.55;;;;;;;;;;10337185;28;20083;-66
2023/02/02 15:21:06;;;;;;;109.78;59.90;;;;;;;;;;10330711;28;20078;-67
2023/02/02 15:26:06;;;;;;;100.03;50.92;;;;;;;;;;10339305;28;20087;-66
2023/02/02 15:31:08;;;;;;;89.35;47.13;;;;;;;;;;10340037;28;20429;-67
2023/02/02 15:36:12;;;;;;;61.40;37.50;;;;;;;;;;10333275;28;20072;-67
2023/02/02 15:41:16;;;;;;;84.00;51.35;;;;;;;;;;10337236;28;20484;-65
2023/02/02 15:46:22;;;;;;;26.35;19.55;;;;;;;;;;10340684;28;20090;-65
2023/02/02 15:51:22;;;;;;;38.33;26.38;;;;;;;;;;10336718;28;20072;-64
2023/02/02 15:56:28;;;;;;;17.85;13.85;;;;;;;;;;10335997;28;20079;-66
2023/02/02 16:01:30;;;;;;;21.42;18.23;;;;;;;;;;10340156;28;20501;-67
2023/02/02 16:06:28;;;;;;;54.20;30.60;;;;;;;;;;10333593;28;20082;-68
2023/02/02 16:11:26;;;;;;;40.63;29.33;;;;;;;;;;10338729;28;20078;-67
2023/02/02 16:16:26;;;;;;;13.25;10.77;;;;;;;;;;10338877;28;20094;-67
2023/02/02 16:21:26;;;;;;;20.23;13.88;;;;;;;;;;10332382;28;20068;-67
2023/02/02 16:26:27;;;;;;;19.10;13.10;;;;;;;;;;10329464;28;20094;-67
2023/02/02 16:31:27;;;;;;;25.30;17.55;;;;;;;;;;10328130;28;20075;-67
2023/02/02 16:36:28;;;;;;;34.38;22.58;;;;;;;;;;10329162;28;20063;-67
2023/02/02 16:41:32;;;;;;;17.95;12.05;;;;;;;;;;10329904;28;20079;-67
2023/02/02 16:46:42;;;;;;;19.15;14.38;;;;;;;;;;10330783;28;20067;-67
2023/02/02 16:51:42;;;;;;;25.90;17.38;;;;;;;;;;10329811;28;20072;-66
2023/02/02 16:56:42;;;;;;;14.18;10.88;;;;;;;;;;10336718;28;20535;-66
2023/02/02 17:01:41;;;;;;;19.48;13.55;;;;;;;;;;10332844;28;20076;-65
2023/02/02 17:06:39;;;;;;;13.02;11.23;;;;;;;;;;10330943;28;20084;-66
2023/02/02 17:11:58;;;;;;;98.18;49.47;;;;;;;;;;10335774;28;20500;-66
2023/02/02 17:16:56;;;;;;;15.93;13.48;;;;;;;;;;10336684;28;20059;-66
2023/02/02 17:21:55;;;;;;;16.58;13.57;;;;;;;;;;10350696;28;20122;-66
2023/02/02 17:26:53;;;;;;;21.90;16.33;;;;;;;;;;10348746;28;20515;-66
2023/02/02 17:31:53;;;;;;;15.30;12.48;;;;;;;;;;10340569;28;20076;-67
2023/02/02 17:36:53;;;;;;;19.52;15.32;;;;;;;;;;10333502;28;20458;-67
2023/02/02 17:41:51;;;;;;;41.83;25.98;;;;;;;;;;10324235;28;20071;-66
2023/02/02 17:46:49;;;;;;;57.28;33.25;;;;;;;;;;10326873;28;20072;-65
2023/02/02 17:51:49;;;;;;;34.55;20.70;;;;;;;;;;10325561;28;20064;-66
2023/02/02 17:56:56;;;;;;;34.03;20.70;;;;;;;;;;10323079;28;20060;-67
2023/02/02 18:01:55;;;;;;;22.60;15.88;;;;;;;;;;10326699;28;20080;-66
2023/02/02 18:06:55;;;;;;;14.95;9.75;;;;;;;;;;10334017;28;20076;-66
2023/02/02 18:11:53;;;;;;;25.05;16.17;;;;;;;;;;10334883;28;20544;-66
2023/02/02 18:16:52;;;;;;;19.25;15.57;;;;;;;;;;10328090;28;20087;-66
2023/02/02 18:21:50;;;;;;;20.30;13.88;;;;;;;;;;10343138;28;20071;-66
2023/02/02 18:26:49;;;;;;;23.08;16.05;;;;;;;;;;10343942;28;20067;-67
2023/02/02 18:31:47;;;;;;;18.42;12.90;;;;;;;;;;10343183;28;20068;-66
2023/02/02 18:36:46;;;;;;;15.15;12.35;;;;;;;;;;10340616;28;20060;-66
2023/02/02 18:41:44;;;;;;;37.33;23.40;;;;;;;;;;10340135;28;20071;-66
2023/02/02 18:46:47;;;;;;;17.88;14.07;;;;;;;;;;10336646;28;20068;-65
2023/02/02 18:51:47;;;;;;;21.40;14.77;;;;;;;;;;10335588;28;20076;-68
2023/02/02 18:56:45;;;;;;;11.93;10.25;;;;;;;;;;10337266;28;20063;-66
2023/02/02 19:01:44;;;;;;;11.23;10.02;;;;;;;;;;10341435;28;20096;-66
2023/02/02 19:12:09;;;;;;;12.88;9.55;;;;;;;;;;10324750;28;20087;-66
2023/02/02 19:17:16;;;;;;;14.27;9.63;;;;;;;;;;10337138;28;20070;-67
2023/02/02 19:22:18;;;;;;;17.02;11.82;;;;;;;;;;10338609;28;20076;-67
2023/02/02 19:27:20;;;;;;;18.55;12.80;;;;;;;;;;10337392;28;20072;-65
2023/02/02 19:32:20;;;;;;;29.90;18.33;;;;;;;;;;10333818;28;20518;-65
2023/02/02 19:37:24;;;;;;;29.77;18.63;;;;;;;;;;10337589;28;20481;-65
2023/02/02 19:42:23;;;;;;;24.17;15.05;;;;;;;;;;10331047;28;20457;-65
2023/02/02 19:47:24;;;;;;;15.90;12.80;;;;;;;;;;10330910;28;20595;-65
2023/02/02 19:52:25;;;;;;;13.85;9.60;;;;;;;;;;10333801;28;20314;-65
2023/02/02 19:57:26;;;;;;;16.83;11.50;;;;;;;;;;10334559;28;20068;-65
2023/02/02 20:02:45;;;;;;;24.27;14.18;;;;;;;;;;10334824;28;20094;-64
2023/02/02 20:07:44;;;;;;;16.45;11.35;;;;;;;;;;10324454;28;20540;-65
2023/02/02 20:12:43;;;;;;;16.63;10.90;;;;;;;;;;10328701;28;20054;-65
2023/02/02 20:17:43;;;;;;;24.17;15.75;;;;;;;;;;10329991;28;20297;-65
2023/02/02 20:22:41;;;;;;;19.65;12.15;;;;;;;;;;10329115;28;20071;-66
2023/02/02 20:27:45;;;;;;;29.70;17.63;;;;;;;;;;10334195;28;20091;-65
2023/02/02 20:32:43;;;;;;;15.57;10.15;;;;;;;;;;10336602;28;20087;-66
2023/02/02 20:37:41;;;;;;;19.20;10.43;;;;;;;;;;10338931;28;20486;-67
2023/02/02 20:42:39;;;;;;;24.45;12.80;;;;;;;;;;10335187;28;20075;-66
2023/02/02 20:47:39;;;;;;;14.05;11.88;;;;;;;;;;10337383;28;20076;-66
2023/02/02 20:52:37;;;;;;;13.02;10.30;;;;;;;;;;10336082;28;20063;-65
2023/02/02 20:57:37;;;;;;;12.32;8.43;;;;;;;;;;10335850;28;20068;-65
2023/02/02 21:02:36;;;;;;;23.42;19.23;;;;;;;;;;10315384;28;20054;-65
2023/02/02 21:07:36;;;;;;;10.88;9.73;;;;;;;;;;10341996;28;20083;-66
2023/02/02 21:12:34;;;;;;;11.77;8.43;;;;;;;;;;10333649;28;20084;-65
2023/02/02 21:17:32;;;;;;;8.38;6.55;;;;;;;;;;10331910;28;20060;-65
2023/02/02 21:22:34;;;;;;;7.15;6.45;;;;;;;;;;10324269;28;20458;-65
2023/02/02 21:27:34;;;;;;;9.52;7.60;;;;;;;;;;10324977;28;20079;-65
2023/02/02 21:32:33;;;;;;;10.85;7.50;;;;;;;;;;10338403;28;20072;-65
2023/02/02 21:37:31;;;;;;;11.32;7.72;;;;;;;;;;10333821;28;20068;-65
2023/02/02 21:42:34;;;;;;;9.00;5.97;;;;;;;;;;10335860;28;20488;-65
2023/02/02 21:47:33;;;;;;;30.58;18.00;;;;;;;;;;10326064;28;20080;-66
2023/02/02 21:52:32;;;;;;;18.50;12.20;;;;;;;;;;10326935;28;20519;-65
2023/02/02 21:57:35;;;;;;;9.85;7.43;;;;;;;;;;10330828;28;20494;-66
2023/02/02 22:02:38;;;;;;;9.95;8.40;;;;;;;;;;10330518;28;20536;-66
2023/02/02 22:07:45;;;;;;;14.43;9.70;;;;;;;;;;10343699;28;20084;-65
2023/02/02 22:12:44;;;;;;;8.48;7.50;;;;;;;;;;10329541;28;20070;-66
2023/02/02 22:17:44;;;;;;;9.75;5.40;;;;;;;;;;10327686;28;20075;-66
2023/02/02 22:22:45;;;;;;;9.98;6.40;;;;;;;;;;10329813;28;20068;-65
2023/02/02 22:27:46;;;;;;;7.30;5.20;;;;;;;;;;10336859;28;20087;-66
2023/02/02 22:32:45;;;;;;;5.85;5.22;;;;;;;;;;10327509;28;20087;-65
2023/02/02 22:37:44;;;;;;;7.35;5.78;;;;;;;;;;10329372;28;20075;-66
2023/02/02 22:42:42;;;;;;;12.05;6.63;;;;;;;;;;10323945;28;20068;-65
2023/02/02 22:47:40;;;;;;;8.05;6.00;;;;;;;;;;10325528;28;20075;-64
2023/02/02 22:52:39;;;;;;;6.30;5.10;;;;;;;;;;10325218;28;20505;-66
2023/02/02 22:57:38;;;;;;;7.70;6.18;;;;;;;;;;10328492;28;20075;-66
2023/02/02 23:02:36;;;;;;;7.72;6.88;;;;;;;;;;10328461;28;20067;-66
2023/02/02 23:07:34;;;;;;;19.75;12.40;;;;;;;;;;10338584;28;20072;-67
2023/02/02 23:12:34;;;;;;;10.43;7.47;;;;;;;;;;10336725;28;20075;-66
2023/02/02 23:17:33;;;;;;;9.80;8.50;;;;;;;;;;10334807;28;20417;-66
2023/02/02 23:22:32;;;;;;;13.90;8.38;;;;;;;;;;10334669;28;20080;-65
2023/02/02 23:27:30;;;;;;;11.05;8.05;;;;;;;;;;10335391;28;20462;-65
2023/02/02 23:32:29;;;;;;;10.38;8.15;;;;;;;;;;10335695;28;20068;-65
2023/02/02 23:37:28;;;;;;;9.13;7.22;;;;;;;;;;10334642;28;20512;-65
2023/02/02 23:42:26;;;;;;;9.93;7.45;;;;;;;;;;10335236;28;20076;-65
2023/02/02 23:47:24;;;;;;;7.55;5.72;;;;;;;;;;10333242;28;20191;-65
2023/02/02 23:52:24;;;;;;;7.85;5.35;;;;;;;;;;10332011;28;20512;-65
2023/02/02 23:57:22;;;;;;;5.57;4.97;;;;;;;;;;10331680;28;20067;-66
